KFFO/FFO METAR and TAF weather

Enter ICAO airport designator
Station Type Date Time Source
KFFO METAR 2019/04/25 10:56 UTC NOAA

KFFO 251056Z 00000KT 6SM BR OVC007 12/10 A2984 RMK AO2A SLP107 P0000 T01150097


Station Type Date Time Source
KFFO Decoded METAR 2019/04/25 10:56 UTC NOAA

Dayton / Wright-Patterson Air Force Base, OH, United States (KFFO) 39-50N 084-03W 251M
Apr 25, 2019 - 06:56 AM EDT / 2019.04.25 1056 UTC
Wind: Calm:0
Visibility: 6 mile(s):0
Sky conditions: overcast
Weather: mist
Precipitation last hour: A trace
Temperature: 52.7 F (11.5 C)
Dew Point: 49.5 F (9.7 C)
Relative Humidity: 88%
Pressure (altimeter): 29.84 in. Hg (1010 hPa)
ob: KFFO 251056Z 00000KT 6SM BR OVC007 12/10 A2984 RMK AO2A SLP107 P0000 T01150097
cycle: 11

Station Type Date Time Source
KFFO TAF 2019/04/25 11:07 UTC NOAA

TAF KFFO 251100Z 2511/2617 15006KT 8000 -SHRA BR BKN007 OVC015 523606 QNH2979INS
BECMG 2514/2515 18006KT 9999 NSW BKN010 OVC015 QNH2975INS
BECMG 2517/2518 25006KT 9000 -SHRA BKN020 OVC025 QNH2969INS
TEMPO 2521/2524 22015G25KT 6000 -TSRA SCT010 BKN025CB OVC040
BECMG 2523/2524 26006KT 4800 -SHRA BR BKN010 OVC020 QNH2954INS
BECMG 2605/2606 30012KT 6000 -SHRA BR BKN007 OVC015 QNH2944INS
TEMPO 2606/2609 BKN004
BECMG 2611/2612 31012G20KT 8000 -SHRA BKN007 OVC015 QNH2949INS
BECMG 2614/2615 31015G25KT 9000 -SHRA BKN010 OVC020 QNH2959INS TX23/2519Z TN12/2512Z

Example: see airport list